createdAt,value
2022-08-16T00:01:43.813Z,10.60
2022-08-16T00:04:13.499Z,9.10
2022-08-16T00:06:44.330Z,9.80
2022-08-16T00:09:13.202Z,8.60
2022-08-16T00:11:45.264Z,9.40
2022-08-16T00:14:20.728Z,9.20
2022-08-16T00:17:05.594Z,9.40
2022-08-16T00:19:41.746Z,11.10
2022-08-16T00:22:13.305Z,9.10
2022-08-16T00:24:44.821Z,9.70
2022-08-16T00:27:15.935Z,10.30
2022-08-16T00:29:45.964Z,9.80
2022-08-16T00:32:17.932Z,10.80
2022-08-16T00:34:53.007Z,8.50
2022-08-16T00:37:58.007Z,10.50
2022-08-16T00:40:36.458Z,9.60
2022-08-16T00:43:16.872Z,9.10
2022-08-16T00:46:33.057Z,10.50
2022-08-16T00:49:01.498Z,9.60
2022-08-16T00:51:30.821Z,10.00
2022-08-16T00:53:59.594Z,10.20
2022-08-16T00:56:56.130Z,8.80
2022-08-16T00:59:27.516Z,10.90
2022-08-16T01:01:56.512Z,9.50
2022-08-16T01:04:30.935Z,8.30
2022-08-16T01:07:03.558Z,9.80
2022-08-16T01:09:42.794Z,8.80
2022-08-16T01:12:26.188Z,8.90
2022-08-16T01:15:00.172Z,8.50
2022-08-16T01:17:36.922Z,9.80
2022-08-16T01:20:23.974Z,8.60
2022-08-16T01:23:18.835Z,8.20
2022-08-16T01:26:00.418Z,8.40
2022-08-16T01:28:45.439Z,8.20
2022-08-16T01:31:17.213Z,7.90
2022-08-16T01:33:46.025Z,8.00
2022-08-16T01:36:19.313Z,9.90
2022-08-16T01:38:56.999Z,8.70
2022-08-16T01:41:30.940Z,9.10
2022-08-16T01:46:40.821Z,7.50
2022-08-16T01:49:43.127Z,7.40
2022-08-16T01:52:29.385Z,8.90
2022-08-16T01:55:19.187Z,7.90
2022-08-16T01:57:53.159Z,8.60
2022-08-16T02:00:29.480Z,8.80
2022-08-16T02:03:00.937Z,9.30
2022-08-16T02:05:31.070Z,8.20
2022-08-16T02:08:04.882Z,7.70
2022-08-16T02:10:36.716Z,8.10
2022-08-16T02:13:08.141Z,9.00
2022-08-16T02:15:43.835Z,8.60
2022-08-16T02:18:18.491Z,9.50
2022-08-16T02:20:52.391Z,8.60
2022-08-16T02:23:23.276Z,7.90
2022-08-16T02:25:54.024Z,7.70
2022-08-16T02:28:26.355Z,7.90
2022-08-16T02:30:59.542Z,9.10
2022-08-16T02:33:43.796Z,10.50
2022-08-16T02:36:47.778Z,8.40
2022-08-16T02:39:08.520Z,8.40
2022-08-16T02:41:39.767Z,7.80
2022-08-16T02:44:14.362Z,8.50
2022-08-16T02:46:50.409Z,8.90
2022-08-16T02:49:20.399Z,10.60
2022-08-16T02:51:50.245Z,7.90
2022-08-16T02:54:18.445Z,8.10
2022-08-16T02:56:47.849Z,8.10
2022-08-16T02:59:16.532Z,7.90
2022-08-16T03:01:45.487Z,8.10
2022-08-16T03:04:39.762Z,8.40
2022-08-16T03:07:06.582Z,8.00
2022-08-16T03:09:44.208Z,8.20
2022-08-16T03:12:16.482Z,7.90
2022-08-16T03:14:48.008Z,8.10
2022-08-16T03:17:18.134Z,10.00
2022-08-16T03:19:59.500Z,8.70
2022-08-16T03:22:31.667Z,8.50
2022-08-16T03:25:07.454Z,7.30
2022-08-16T03:30:21.898Z,8.50
2022-08-16T03:32:56.099Z,8.90
2022-08-16T03:35:33.071Z,8.60
2022-08-16T03:38:34.418Z,9.20
2022-08-16T03:41:17.054Z,7.60
2022-08-16T03:43:56.918Z,8.20
2022-08-16T03:46:48.191Z,8.30
2022-08-16T03:49:20.355Z,7.60
2022-08-16T03:51:53.319Z,8.60
2022-08-16T03:54:23.781Z,7.90
2022-08-16T03:56:57.168Z,8.00
2022-08-16T03:59:30.371Z,8.20
2022-08-16T04:02:21.956Z,8.10
2022-08-16T04:04:54.209Z,8.70
2022-08-16T04:07:25.148Z,7.90
2022-08-16T04:09:53.508Z,7.80
2022-08-16T04:12:53.936Z,8.10
2022-08-16T04:15:16.936Z,8.20
2022-08-16T04:17:59.892Z,7.50
2022-08-16T04:20:33.705Z,8.10
2022-08-16T04:23:08.275Z,8.40
2022-08-16T04:25:38.588Z,7.70
2022-08-16T04:28:51.564Z,8.50
2022-08-16T04:31:00.429Z,7.70
2022-08-16T04:33:29.275Z,8.80
2022-08-16T04:36:04.795Z,8.00
2022-08-16T04:38:34.673Z,8.50
2022-08-16T04:41:04.162Z,7.90
2022-08-16T04:43:33.747Z,7.90
2022-08-16T04:46:03.134Z,7.80
2022-08-16T04:48:36.360Z,8.40
2022-08-16T04:51:12.758Z,8.10
2022-08-16T04:53:51.999Z,8.00
2022-08-16T04:56:20.782Z,8.10
2022-08-16T04:58:51.464Z,8.30
2022-08-16T05:01:57.575Z,8.50
2022-08-16T05:04:19.842Z,7.50
2022-08-16T05:06:50.168Z,8.00
2022-08-16T05:09:23.739Z,8.20
2022-08-16T05:11:57.366Z,7.40
2022-08-16T05:14:45.173Z,8.30
2022-08-16T05:17:24.816Z,7.90
2022-08-16T05:19:57.722Z,8.60
2022-08-16T05:22:28.668Z,9.00
2022-08-16T05:24:59.147Z,8.60
2022-08-16T05:27:27.677Z,8.50
2022-08-16T05:29:57.822Z,18.00
2022-08-16T05:32:36.452Z,20.00
2022-08-16T05:35:15.611Z,17.80
2022-08-16T05:38:32.922Z,21.60
2022-08-16T05:41:00.417Z,14.80
2022-08-16T05:43:43.635Z,16.80
2022-08-16T05:46:30.914Z,21.50
2022-08-16T05:49:16.230Z,18.10
2022-08-16T05:51:51.319Z,14.80
2022-08-16T05:54:20.255Z,17.00
2022-08-16T05:56:58.080Z,11.80
2022-08-16T05:59:29.568Z,15.00
2022-08-16T06:01:58.953Z,14.20
2022-08-16T06:04:35.318Z,12.20
2022-08-16T06:07:08.794Z,11.90
2022-08-16T06:09:43.658Z,14.00
2022-08-16T06:12:27.289Z,11.60
2022-08-16T06:15:09.647Z,13.50
2022-08-16T06:17:43.245Z,11.70
2022-08-16T06:20:35.835Z,12.60
2022-08-16T06:23:17.414Z,12.90
2022-08-16T06:26:18.540Z,11.60
2022-08-16T06:28:49.388Z,10.90
2022-08-16T06:31:24.535Z,10.80
2022-08-16T06:33:55.406Z,10.40
2022-08-16T06:36:27.096Z,10.60
2022-08-16T06:39:10.917Z,10.20
2022-08-16T06:41:51.702Z,13.30
2022-08-16T06:44:38.846Z,11.40
2022-08-16T06:47:13.338Z,10.10
2022-08-16T06:49:53.919Z,10.80
2022-08-16T06:52:57.685Z,11.90
2022-08-16T06:55:15.396Z,10.50
2022-08-16T06:57:47.549Z,10.80
2022-08-16T07:00:24.794Z,12.00
2022-08-16T07:03:01.962Z,8.80
2022-08-16T07:05:50.994Z,12.00
2022-08-16T07:08:28.104Z,9.20
2022-08-16T07:10:58.809Z,11.40
2022-08-16T07:14:00.279Z,11.20
2022-08-16T07:16:21.439Z,11.20
2022-08-16T07:19:01.562Z,9.00
2022-08-16T07:21:46.700Z,10.50
2022-08-16T07:24:30.375Z,10.40
2022-08-16T07:27:08.649Z,10.20
2022-08-16T07:29:41.640Z,8.90
2022-08-16T07:32:11.647Z,9.30
2022-08-16T07:34:48.381Z,8.90
2022-08-16T07:37:18.200Z,9.60
2022-08-16T07:40:49.099Z,8.80
2022-08-16T07:43:11.482Z,8.50
2022-08-16T07:45:42.856Z,8.30
2022-08-16T07:48:12.519Z,8.90
2022-08-16T07:50:56.423Z,9.50
2022-08-16T07:53:30.855Z,8.50
2022-08-16T07:56:04.444Z,8.60
2022-08-16T07:58:38.939Z,8.40
2022-08-16T08:01:15.190Z,8.10
2022-08-16T08:06:33.002Z,7.90
2022-08-16T08:09:06.934Z,8.60
2022-08-16T08:11:35.289Z,9.60
2022-08-16T08:14:07.263Z,8.10
2022-08-16T08:16:45.424Z,8.70
2022-08-16T08:19:23.922Z,9.20
2022-08-16T08:22:01.177Z,8.70
2022-08-16T08:24:44.210Z,8.80
2022-08-16T08:27:22.801Z,9.10
2022-08-16T08:30:48.825Z,7.70
2022-08-16T08:32:57.088Z,7.20
2022-08-16T08:35:28.476Z,7.90
2022-08-16T08:37:59.008Z,8.60
2022-08-16T08:40:30.597Z,7.60
2022-08-16T08:43:11.827Z,7.50
2022-08-16T08:45:48.609Z,8.00
2022-08-16T08:48:35.139Z,7.70
2022-08-16T08:53:57.939Z,7.50
2022-08-16T08:56:32.389Z,8.90
2022-08-16T08:59:13.289Z,7.10
2022-08-16T09:01:57.717Z,7.50
2022-08-16T09:04:29.865Z,7.30
2022-08-16T09:07:01.088Z,7.40
2022-08-16T09:09:34.770Z,7.60
2022-08-16T09:12:30.157Z,7.60
2022-08-16T09:15:06.729Z,8.10
2022-08-16T09:17:51.861Z,8.10
2022-08-16T09:20:26.445Z,6.00
2022-08-16T09:22:57.475Z,7.00
2022-08-16T09:25:38.305Z,6.80
2022-08-16T09:28:12.597Z,6.60
2022-08-16T09:31:24.756Z,6.90
2022-08-16T09:33:55.813Z,6.90
2022-08-16T09:36:32.590Z,7.00
2022-08-16T09:39:03.545Z,6.60
2022-08-16T09:41:32.807Z,6.40
2022-08-16T09:44:20.715Z,6.60
2022-08-16T09:46:49.935Z,6.30
2022-08-16T09:49:20.862Z,7.10
2022-08-16T09:51:53.734Z,6.30
2022-08-16T09:54:32.432Z,6.60
2022-08-16T09:57:02.926Z,6.60
2022-08-16T09:59:38.778Z,6.30
2022-08-16T10:02:27.366Z,6.30
2022-08-16T10:04:58.693Z,6.50
2022-08-16T10:07:38.332Z,6.50
2022-08-16T10:10:18.662Z,6.80
2022-08-16T10:13:16.276Z,6.60
2022-08-16T10:15:55.221Z,7.50
2022-08-16T10:19:02.147Z,5.40
2022-08-16T10:21:14.169Z,6.40
2022-08-16T10:23:44.548Z,6.90
2022-08-16T10:27:18.016Z,6.30
2022-08-16T10:29:04.773Z,8.10
2022-08-16T10:31:43.347Z,7.10
2022-08-16T10:34:31.146Z,6.60
2022-08-16T10:37:03.019Z,5.90
2022-08-16T10:39:41.140Z,5.90
2022-08-16T10:42:13.261Z,5.60
2022-08-16T10:44:46.550Z,6.20
2022-08-16T10:47:15.708Z,6.00
2022-08-16T10:49:45.413Z,5.50
2022-08-16T10:52:18.074Z,6.10
2022-08-16T10:57:35.948Z,5.80
2022-08-16T11:00:22.355Z,5.70
2022-08-16T11:03:00.114Z,5.80
2022-08-16T11:05:59.470Z,6.10
2022-08-16T11:08:35.589Z,5.50
2022-08-16T11:11:11.694Z,5.80
2022-08-16T11:13:58.789Z,6.80
2022-08-16T11:19:19.367Z,5.60
2022-08-16T11:24:44.706Z,5.40
2022-08-16T11:27:35.400Z,5.60
2022-08-16T11:30:12.370Z,5.20
2022-08-16T11:32:48.673Z,5.50
2022-08-16T11:38:46.948Z,5.40
2022-08-16T11:41:08.979Z,5.60
2022-08-16T11:43:41.924Z,5.20
2022-08-16T11:46:44.319Z,5.30
2022-08-16T11:49:11.234Z,5.70
2022-08-16T11:51:44.475Z,5.50
2022-08-16T11:54:20.470Z,5.20
2022-08-16T11:56:56.954Z,5.00
2022-08-16T11:59:30.205Z,5.40
2022-08-16T12:02:04.390Z,5.10
2022-08-16T12:04:51.773Z,5.20
2022-08-16T12:07:23.616Z,5.50
2022-08-16T12:09:54.274Z,5.30
2022-08-16T12:12:23.849Z,5.20
2022-08-16T12:14:59.768Z,5.10
2022-08-16T12:17:33.337Z,5.60
2022-08-16T12:20:05.237Z,5.10
2022-08-16T12:22:37.940Z,5.30
2022-08-16T12:25:09.189Z,5.20
2022-08-16T12:27:41.733Z,5.30
2022-08-16T12:30:21.337Z,5.50
2022-08-16T12:32:54.575Z,4.90
2022-08-16T12:35:27.796Z,4.40
2022-08-16T12:37:59.842Z,5.20
2022-08-16T12:40:36.073Z,4.90
2022-08-16T12:43:10.845Z,4.80
2022-08-16T12:45:50.253Z,4.90
2022-08-16T12:48:42.226Z,5.80
2022-08-16T12:51:24.043Z,5.00
2022-08-16T12:53:58.273Z,5.10
2022-08-16T12:56:33.990Z,5.00
2022-08-16T12:59:11.524Z,5.30
2022-08-16T13:01:41.977Z,5.30
2022-08-16T13:04:20.333Z,5.30
2022-08-16T13:06:52.121Z,5.50
2022-08-16T13:09:28.738Z,5.00
2022-08-16T13:12:15.742Z,5.20
2022-08-16T13:14:45.611Z,5.00
2022-08-16T13:17:20.005Z,5.80
2022-08-16T13:20:11.214Z,5.40
2022-08-16T13:22:52.110Z,4.80
2022-08-16T13:25:25.560Z,5.10
2022-08-16T13:28:14.889Z,4.80
2022-08-16T13:30:52.730Z,5.70
2022-08-16T13:33:37.242Z,4.70
2022-08-16T13:38:49.299Z,5.20
2022-08-16T13:41:19.586Z,5.30
2022-08-16T13:43:57.922Z,5.00
2022-08-16T13:46:30.239Z,4.90
2022-08-16T13:48:59.546Z,4.70
2022-08-16T13:51:30.700Z,5.10
2022-08-16T13:54:04.094Z,7.70
2022-08-16T13:56:39.544Z,4.60
2022-08-16T13:59:20.271Z,4.40
2022-08-16T14:01:56.472Z,4.80
2022-08-16T14:04:32.947Z,4.20
2022-08-16T14:07:04.702Z,4.70
2022-08-16T14:09:36.707Z,4.70
2022-08-16T14:12:18.229Z,4.70
2022-08-16T14:14:47.982Z,4.80
2022-08-16T14:17:16.639Z,5.00
2022-08-16T14:19:46.190Z,4.60
2022-08-16T14:22:30.471Z,4.90
2022-08-16T14:25:01.211Z,4.30
2022-08-16T14:27:32.657Z,4.50
2022-08-16T14:30:01.559Z,4.80
2022-08-16T14:32:34.166Z,4.60
2022-08-16T14:35:13.045Z,4.80
2022-08-16T14:37:43.106Z,4.40
2022-08-16T14:40:16.659Z,4.30
2022-08-16T14:42:47.013Z,4.80
2022-08-16T14:45:22.824Z,4.50
2022-08-16T14:47:51.888Z,4.90
2022-08-16T14:50:24.483Z,4.40
2022-08-16T14:53:21.170Z,4.50
2022-08-16T14:55:49.099Z,4.20
2022-08-16T14:58:19.616Z,4.40
2022-08-16T15:00:50.460Z,4.10
2022-08-16T15:03:23.460Z,4.80
2022-08-16T15:05:54.005Z,4.40
2022-08-16T15:08:36.134Z,4.50
2022-08-16T15:11:07.797Z,4.60
2022-08-16T15:13:36.242Z,5.20
2022-08-16T15:16:06.137Z,3.60
2022-08-16T15:18:35.357Z,4.00
2022-08-16T15:21:05.460Z,4.20
2022-08-16T15:23:40.428Z,4.80
2022-08-16T15:26:11.096Z,4.90
2022-08-16T15:28:58.068Z,4.30
2022-08-16T15:31:27.772Z,4.10
2022-08-16T15:33:58.157Z,4.40
2022-08-16T15:36:26.778Z,4.50
2022-08-16T15:39:06.999Z,4.90
2022-08-16T15:41:48.062Z,4.10
2022-08-16T15:44:24.841Z,5.10
2022-08-16T15:47:00.029Z,4.40
2022-08-16T15:49:37.723Z,3.80
2022-08-16T15:52:24.759Z,3.70
2022-08-16T15:55:13.004Z,3.90
2022-08-16T15:57:52.323Z,4.90
2022-08-16T16:00:21.239Z,3.90
2022-08-16T16:02:49.958Z,4.20
2022-08-16T16:05:19.561Z,4.10
2022-08-16T16:07:56.712Z,4.60
2022-08-16T16:10:39.602Z,3.70
2022-08-16T16:13:08.890Z,3.60
2022-08-16T16:15:47.260Z,4.00
2022-08-16T16:18:18.121Z,3.80
2022-08-16T16:20:54.983Z,4.10
2022-08-16T16:23:55.002Z,4.90
2022-08-16T16:26:28.021Z,3.80
2022-08-16T16:29:07.736Z,3.80
2022-08-16T16:31:37.534Z,4.30
2022-08-16T16:34:07.894Z,3.80
2022-08-16T16:36:39.926Z,4.00
2022-08-16T16:39:11.710Z,3.40
2022-08-16T16:41:42.145Z,4.10
2022-08-16T16:44:10.804Z,3.80
2022-08-16T16:46:56.660Z,4.00
2022-08-16T16:49:26.565Z,3.80
2022-08-16T16:52:06.577Z,3.90
2022-08-16T16:54:36.133Z,3.70
2022-08-16T16:57:04.509Z,3.50
2022-08-16T16:59:32.582Z,4.00
2022-08-16T17:02:39.367Z,3.60
2022-08-16T17:04:49.566Z,3.90
2022-08-16T17:07:18.421Z,3.40
2022-08-16T17:12:25.178Z,4.30
2022-08-16T17:15:11.372Z,3.70
2022-08-16T17:19:15.560Z,3.20
2022-08-16T17:20:28.506Z,3.70
2022-08-16T17:22:58.336Z,3.30
2022-08-16T17:25:36.563Z,3.50
2022-08-16T17:28:58.774Z,3.30
2022-08-16T17:30:58.830Z,7.80
2022-08-16T17:33:37.194Z,10.40
2022-08-16T17:36:08.649Z,7.70
2022-08-16T17:38:43.953Z,10.30
2022-08-16T17:41:16.395Z,8.50
2022-08-16T17:43:46.901Z,10.30
2022-08-16T17:46:50.954Z,9.60
2022-08-16T17:49:07.995Z,10.40
2022-08-16T17:51:37.201Z,10.00
2022-08-16T17:54:08.106Z,10.00
2022-08-16T17:56:49.631Z,10.60
2022-08-16T17:59:20.519Z,9.70
2022-08-16T18:01:50.030Z,9.30
2022-08-16T18:04:49.717Z,10.50
2022-08-16T18:07:08.772Z,11.10
2022-08-16T18:09:41.060Z,8.70
2022-08-16T18:12:50.882Z,9.80
2022-08-16T18:15:17.295Z,8.80
2022-08-16T18:17:46.402Z,9.80
2022-08-16T18:20:33.915Z,9.50
2022-08-16T18:23:08.274Z,10.70
2022-08-16T18:25:40.555Z,9.60
2022-08-16T18:28:12.197Z,11.10
2022-08-16T18:30:47.972Z,10.60
2022-08-16T18:33:23.567Z,8.60
2022-08-16T18:35:57.557Z,9.40
2022-08-16T18:38:32.459Z,10.00
2022-08-16T18:44:23.159Z,10.90
2022-08-16T18:46:23.753Z,10.40
2022-08-16T18:48:52.849Z,10.40
2022-08-16T18:51:25.150Z,8.50
2022-08-16T18:53:54.727Z,9.80
2022-08-16T18:56:23.482Z,11.60
2022-08-16T18:59:12.658Z,8.80
2022-08-16T19:01:41.294Z,9.40
2022-08-16T19:04:55.861Z,10.30
2022-08-16T19:07:01.782Z,11.50
2022-08-16T19:09:32.103Z,10.90
2022-08-16T19:12:06.758Z,11.00
2022-08-16T19:14:35.335Z,9.00
2022-08-16T19:17:05.560Z,10.60
2022-08-16T19:19:34.278Z,9.80
2022-08-16T19:22:03.627Z,11.30
2022-08-16T19:24:32.429Z,10.10
2022-08-16T19:27:04.150Z,10.90
2022-08-16T19:29:32.550Z,11.00
2022-08-16T19:32:01.376Z,10.70
2022-08-16T19:34:30.349Z,11.20
2022-08-16T19:36:59.329Z,11.70
2022-08-16T19:39:32.397Z,12.20
2022-08-16T19:42:15.621Z,11.20
2022-08-16T19:44:47.025Z,10.80
2022-08-16T19:47:16.162Z,12.20
2022-08-16T19:49:44.801Z,9.90
2022-08-16T19:52:30.356Z,13.00
2022-08-16T19:55:05.112Z,10.70
2022-08-16T19:57:35.469Z,12.30
2022-08-16T20:00:17.331Z,11.80
2022-08-16T20:02:52.456Z,11.50
2022-08-16T20:05:35.375Z,13.80
2022-08-16T20:08:04.908Z,12.00
2022-08-16T20:10:33.249Z,11.20
2022-08-16T20:13:02.843Z,12.40
2022-08-16T20:15:32.572Z,13.40
2022-08-16T20:18:02.585Z,9.60
2022-08-16T20:20:43.278Z,14.10
2022-08-16T20:23:24.990Z,12.90
2022-08-16T20:25:58.003Z,11.60
2022-08-16T20:28:52.497Z,11.90
2022-08-16T20:31:15.167Z,12.60
2022-08-16T20:33:44.110Z,11.40
2022-08-16T20:36:16.289Z,10.10
2022-08-16T20:38:47.704Z,11.10
2022-08-16T20:41:16.898Z,9.40
2022-08-16T20:43:47.590Z,10.60
2022-08-16T20:46:15.615Z,8.90
2022-08-16T20:48:44.263Z,9.00
2022-08-16T20:51:12.773Z,9.60
2022-08-16T20:53:42.946Z,10.00
2022-08-16T20:56:12.516Z,11.50
2022-08-16T20:58:40.561Z,9.50
2022-08-16T21:01:09.110Z,8.40
2022-08-16T21:03:37.955Z,9.60
2022-08-16T21:06:06.406Z,9.90
2022-08-16T21:08:52.101Z,9.00
2022-08-16T21:11:23.709Z,10.10
2022-08-16T21:14:00.398Z,8.90
2022-08-16T21:16:28.751Z,13.80
2022-08-16T21:18:57.021Z,8.80
2022-08-16T21:21:31.940Z,9.70
2022-08-16T21:24:01.713Z,11.40
2022-08-16T21:26:30.399Z,10.80
2022-08-16T21:28:58.600Z,9.10
2022-08-16T21:31:26.985Z,9.70
2022-08-16T21:33:56.136Z,9.50
2022-08-16T21:36:35.977Z,8.20
2022-08-16T21:39:06.630Z,8.30
2022-08-16T21:41:36.442Z,8.90
2022-08-16T21:44:05.682Z,9.30
2022-08-16T21:46:34.147Z,8.50
2022-08-16T21:49:02.637Z,7.70
2022-08-16T21:51:30.733Z,8.00
2022-08-16T21:53:58.951Z,8.10
2022-08-16T21:56:27.277Z,9.50
2022-08-16T21:58:55.868Z,9.00
2022-08-16T22:01:24.560Z,8.10
2022-08-16T22:04:09.692Z,7.60
2022-08-16T22:06:43.728Z,6.90
2022-08-16T22:09:15.671Z,9.20
2022-08-16T22:11:44.974Z,6.90
2022-08-16T22:14:13.431Z,7.50
2022-08-16T22:16:43.496Z,7.00
2022-08-16T22:19:13.579Z,7.20
2022-08-16T22:21:42.149Z,7.70
2022-08-16T22:24:10.630Z,6.80
2022-08-16T22:26:43.116Z,7.70
2022-08-16T22:29:14.900Z,7.50
2022-08-16T22:31:44.561Z,7.30
2022-08-16T22:34:13.993Z,7.40
2022-08-16T22:36:42.748Z,7.20
2022-08-16T22:39:13.940Z,7.20
2022-08-16T22:41:45.726Z,6.40
2022-08-16T22:44:14.785Z,6.40
2022-08-16T22:46:43.163Z,7.20
2022-08-16T22:49:12.658Z,8.20
2022-08-16T22:51:41.535Z,6.80
2022-08-16T22:54:43.891Z,7.10
2022-08-16T22:56:58.361Z,7.50
2022-08-16T22:59:28.717Z,6.20
2022-08-16T23:01:57.137Z,7.20
2022-08-16T23:04:25.587Z,7.00
2022-08-16T23:06:54.053Z,7.20
2022-08-16T23:09:22.512Z,6.20
2022-08-16T23:11:51.560Z,7.20
2022-08-16T23:14:19.888Z,7.10
2022-08-16T23:16:48.063Z,7.20
2022-08-16T23:19:17.572Z,5.80
2022-08-16T23:21:48.371Z,6.40
2022-08-16T23:24:24.413Z,6.20
2022-08-16T23:26:52.738Z,5.80
2022-08-16T23:29:26.614Z,6.80
2022-08-16T23:31:59.146Z,6.30
2022-08-16T23:34:29.004Z,6.70
2022-08-16T23:36:57.375Z,6.10
2022-08-16T23:39:25.840Z,6.90
2022-08-16T23:41:54.308Z,5.80
2022-08-16T23:44:56.818Z,6.10
2022-08-16T23:47:10.996Z,5.90
2022-08-16T23:49:56.186Z,7.60
2022-08-16T23:52:39.373Z,7.10
2022-08-16T23:55:16.368Z,6.00
2022-08-16T23:57:46.521Z,6.40
